Hollywood, FL (33020)

4:08 PM EST on December 26, 2014 (GMT -0500)
Hollywood Highland Gardens, FL | Change Station
CLOSE
Current Station
Personal Weather Station
Location: Hollywood, FL
Elevation: 23 ft
Nearby Weather Stations

Elev 23 ft 26.00 °N, 80.15 °W | Updated 6 minutes ago

Overcast
Overcast
73.5 °F
Feels Like 70 °F
N
0.0
Wind Variable Wind from WNW

Today
High -- | Low -- °F
--% Chance of Precip.
Yesterday
High -- | Low -- °F
Precip. -- in
7:05 AM 5:36 PM
Waxing Crescent, 29% visible
Pressure 30.12 in
Visibility 10.0 miles
Clouds Few 500 ft
Scattered Clouds 1900 ft
Overcast 5500 ft
Heat Index 70 °F
Dew Point 72 °F
Humidity 95%
Rainfall 0.09 in
Snow Depth Not available.
UV 0.0 out of 12
Pollen 3.00 out of 12
Air Quality Not available.
Flu Activity Not available.
METAR KFLL 262053Z 02003KT 10SM FEW005 SCT019 OVC055 23/23 A3012 RMK AO2 SLP199 60007 T02330228 55006

More Conditions Fewer Conditions

Pressure 30.12 in
Visibility 10.0 miles
Clouds Few 500 ft
Scattered Clouds 1900 ft
Overcast 5500 ft
Heat Index 70 °F
Dew Point 72 °F
Humidity 95%
Rainfall 0.09 in
Snow Depth Not available.
UV 0.0 out of 12
Pollen 3.00 out of 12
Air Quality Not available.
Flu Activity Not available.
METAR KFLL 262053Z 02003KT 10SM FEW005 SCT019 OVC055 23/23 A3012 RMK AO2 SLP199 60007 T02330228 55006

More Conditions Fewer Conditions

10-Day Weather Forecast

Almanac

Astronomy

Dec. 26, 2014 Rise Set
Actual Time
Civil Twilight
Nautical Twilight
Astronomical Twilight
Moon
Length of Visible Light
Length of Day
Tomorrow will be .
, % of the Moon is Illuminated

Today's Extremes

State Highs State Lows

Community

WunderPhotos

Upload Photos

1,780,708 photos uploaded!

WunderBlogs® & News

Nearby

Air Quality

  Air Quality AQ Index Pollutant
Not available.

Snow Depth

Station Depth Elevation

Earthquake Activity

City Distance Mag. Time & Date
Minimum magnitude displayed is 2.5.

Coastal Water Temperatures

Place Temperature

Nearby Weather Stations